Time;durP1;ratioP1;P1;durP2;ratioP2;P2;SDS_P1;SDS_P2;PMS_P1;PMS_P2;Temp;Humidity;BMP_temperature;BMP_pressure;BME280_temperature;BME280_humidity;BME280_pressure;Samples;Min_cycle;Max_cycle;Signal;HPM_P1;HPM_P2
2023/11/25 00:00:51;;;;;;;5.20;1.65;;;;;;;5.51;100.00;98530.13;5094495;28;20024;-48
2023/11/25 00:03:16;;;;;;;6.72;1.45;;;;;;;5.62;100.00;98543.75;5094461;28;20035;-48
2023/11/25 00:05:42;;;;;;;6.40;1.60;;;;;;;5.70;100.00;98541.91;5094427;28;20016;-48
2023/11/25 00:08:09;;;;;;;5.40;1.63;;;;;;;5.86;100.00;98545.38;5092217;28;20032;-48
2023/11/25 00:10:35;;;;;;;7.50;2.97;;;;;;;5.96;100.00;98548.59;5094526;28;20016;-48
2023/11/25 00:13:02;;;;;;;6.50;1.70;;;;;;;6.12;100.00;98551.06;5094256;28;20070;-48
2023/11/25 00:15:28;;;;;;;6.10;2.95;;;;;;;6.07;100.00;98558.59;5092815;28;20595;-49
2023/11/25 00:17:55;;;;;;;6.68;1.80;;;;;;;5.99;100.00;98553.44;5094118;28;20060;-48
2023/11/25 00:20:22;;;;;;;10.13;1.73;;;;;;;5.93;100.00;98559.31;5092805;28;20031;-48
2023/11/25 00:22:48;;;;;;;5.32;1.55;;;;;;;5.83;100.00;98564.75;5094084;28;20035;-48
2023/11/25 00:25:15;;;;;;;15.35;6.22;;;;;;;5.78;100.00;98567.09;5093639;28;20040;-48
2023/11/25 00:27:42;;;;;;;9.77;2.28;;;;;;;5.90;100.00;98567.50;5093980;28;20020;-48
2023/11/25 00:30:10;;;;;;;9.82;2.00;;;;;;;5.96;100.00;98564.22;5092593;28;20035;-48
2023/11/25 00:32:39;;;;;;;7.00;1.60;;;;;;;6.00;100.00;98568.91;5093916;28;20486;-48
2023/11/25 00:35:05;;;;;;;10.65;4.93;;;;;;;6.12;100.00;98571.91;5094015;28;20028;-48
2023/11/25 00:37:35;;;;;;;7.00;2.33;;;;;;;6.16;100.00;98559.38;5092356;28;20111;-48
2023/11/25 00:40:04;;;;;;;9.82;1.75;;;;;;;6.18;100.00;98565.22;5093677;28;20130;-48
2023/11/25 00:42:31;;;;;;;9.48;2.00;;;;;;;6.23;100.00;98575.09;5093605;28;20020;-48
2023/11/25 00:44:57;;;;;;;3.72;1.42;;;;;;;6.25;100.00;98567.91;5092271;28;20065;-48
2023/11/25 00:47:23;;;;;;;13.15;8.23;;;;;;;6.13;100.00;98575.31;5093578;28;20024;-48
2023/11/25 00:49:49;;;;;;;5.90;3.53;;;;;;;6.09;100.00;98566.25;5092183;28;20402;-48
2023/11/25 00:52:17;;;;;;;6.22;2.00;;;;;;;6.30;100.00;98571.63;5092088;28;20530;-48
2023/11/25 00:54:43;;;;;;;5.70;1.55;;;;;;;6.38;100.00;98575.97;5093690;28;20039;-48
2023/11/25 00:57:09;;;;;;;6.15;1.73;;;;;;;6.30;100.00;98576.00;5093291;28;20020;-48
2023/11/25 00:59:35;;;;;;;5.82;1.50;;;;;;;6.65;100.00;98568.53;5093345;28;20024;-48
2023/11/25 01:02:01;;;;;;;5.68;1.70;;;;;;;6.69;100.00;98564.59;5091994;28;20045;-48
2023/11/25 01:04:26;;;;;;;5.97;1.65;;;;;;;6.68;100.00;98576.84;5093242;28;20440;-48
2023/11/25 01:06:52;;;;;;;6.40;2.50;;;;;;;6.77;100.00;98572.34;5093157;28;20523;-48
2023/11/25 01:09:19;;;;;;;4.28;1.63;;;;;;;6.72;100.00;98569.44;5093222;28;20056;-49
2023/11/25 01:11:48;;;;;;;7.25;1.67;;;;;;;6.50;100.00;98576.31;5091768;28;20403;-48
2023/11/25 01:14:13;;;;;;;8.35;1.75;;;;;;;6.43;100.00;98581.44;5093029;28;20047;-49
2023/11/25 01:16:39;;;;;;;8.10;1.90;;;;;;;6.41;100.00;98588.63;5092870;28;20485;-48
2023/11/25 01:19:06;;;;;;;5.18;1.48;;;;;;;6.54;100.00;98583.63;5091834;28;20081;-48
2023/11/25 01:21:32;;;;;;;12.18;1.70;;;;;;;6.72;100.00;98592.91;5091601;28;20024;-49
2023/11/25 01:23:57;;;;;;;9.00;1.80;;;;;;;6.72;100.00;98585.91;5092400;28;20514;-49
2023/11/25 01:26:23;;;;;;;6.95;2.53;;;;;;;6.79;100.00;98586.00;5092841;28;20070;-49
2023/11/25 01:28:49;;;;;;;6.05;1.55;;;;;;;6.85;100.00;98585.28;5091469;28;20540;-49
2023/11/25 01:31:15;;;;;;;10.05;2.03;;;;;;;6.89;100.00;98586.56;5091352;28;20024;-49
2023/11/25 01:33:41;;;;;;;7.03;1.95;;;;;;;6.77;100.00;98590.59;5091426;28;20020;-49
2023/11/25 01:36:11;;;;;;;5.57;1.58;;;;;;;6.77;100.00;98588.78;5092493;28;20078;-49
2023/11/25 01:38:38;;;;;;;9.48;3.67;;;;;;;6.85;100.00;98598.34;5092836;28;20086;-49
2023/11/25 01:41:05;;;;;;;9.98;3.63;;;;;;;6.94;100.00;98599.06;5092525;28;20023;-49
2023/11/25 01:43:31;;;;;;;6.65;1.80;;;;;;;6.97;100.00;98585.66;5092612;28;20033;-49
2023/11/25 01:45:57;;;;;;;32.70;29.17;;;;;;;6.86;100.00;98586.09;5091185;28;20024;-49
2023/11/25 01:48:25;;;;;;;20.85;14.88;;;;;;;6.86;100.00;98594.75;5091159;28;20032;-49
2023/11/25 01:50:51;;;;;;;29.30;22.13;;;;;;;6.91;100.00;98594.22;5092407;28;20016;-49
2023/11/25 01:53:21;;;;;;;9.70;3.80;;;;;;;6.94;100.00;98597.28;5091034;28;20077;-49
2023/11/25 01:55:50;;;;;;;13.85;7.82;;;;;;;7.27;100.00;98585.66;5092363;28;20024;-49
2023/11/25 01:58:18;;;;;;;11.65;5.50;;;;;;;7.54;100.00;98584.97;5090925;28;20031;-49
2023/11/25 02:00:44;;;;;;;28.70;25.85;;;;;;;7.65;100.00;98591.53;5092292;28;20048;-49
2023/11/25 02:03:13;;;;;;;36.05;30.33;;;;;;;7.95;100.00;98583.63;5092432;28;20031;-49
2023/11/25 02:05:39;;;;;;;17.48;8.52;;;;;;;8.39;100.00;98587.84;5092427;28;20073;-49
2023/11/25 02:08:08;;;;;;;8.25;3.60;;;;;;;8.63;100.00;98591.06;5090776;28;20032;-49
2023/11/25 02:10:34;;;;;;;7.15;2.38;;;;;;;8.68;100.00;98583.47;5092350;28;20464;-49
2023/11/25 02:13:08;;;;;;;7.53;4.78;;;;;;;8.59;100.00;98594.09;5090754;28;20020;-49
2023/11/25 02:15:38;;;;;;;10.60;6.78;;;;;;;8.40;100.00;98594.69;5091991;28;20490;-49
2023/11/25 02:18:04;;;;;;;8.88;3.60;;;;;;;8.49;100.00;98590.16;5091992;28;20074;-49
2023/11/25 02:20:35;;;;;;;14.25;6.30;;;;;;;8.70;100.00;98592.75;5090665;28;20446;-49
2023/11/25 02:23:03;;;;;;;6.50;5.68;;;;;;;8.97;100.00;98588.50;5092227;28;20035;-49
2023/11/25 02:25:28;;;;;;;19.30;13.40;;;;;;;8.87;100.00;98608.94;5090475;28;20123;-49
2023/11/25 02:27:55;;;;;;;15.43;12.00;;;;;;;8.77;100.00;98605.88;5092483;28;20127;-49
2023/11/25 02:30:23;;;;;;;10.68;5.85;;;;;;;8.73;100.00;98600.22;5091393;28;20485;-49
2023/11/25 02:32:50;;;;;;;7.65;4.05;;;;;;;8.91;100.00;98602.34;5092030;28;20397;-49
2023/11/25 02:35:16;;;;;;;7.88;2.40;;;;;;;9.24;100.00;98606.97;5092021;28;20444;-49
2023/11/25 02:37:45;;;;;;;9.05;1.75;;;;;;;9.38;100.00;98600.81;5091766;28;20835;-49
2023/11/25 02:40:16;;;;;;;6.55;2.67;;;;;;;9.34;100.00;98602.19;5091752;28;20064;-49
2023/11/25 02:42:48;;;;;;;8.48;2.10;;;;;;;9.18;100.00;98605.94;5091832;28;20028;-49
2023/11/25 02:45:20;;;;;;;11.90;4.25;;;;;;;8.88;100.00;98613.19;5090415;28;20485;-49
2023/11/25 02:47:49;;;;;;;8.88;2.63;;;;;;;8.65;100.00;98610.00;5091787;28;20032;-49
2023/11/25 02:50:16;;;;;;;8.02;2.30;;;;;;;8.41;100.00;98606.81;5091651;28;20035;-49
2023/11/25 02:52:43;;;;;;;7.35;2.03;;;;;;;8.26;100.00;98603.41;5091641;28;20024;-49
2023/11/25 02:55:12;;;;;;;6.82;2.65;;;;;;;8.07;100.00;98610.88;5090270;28;20059;-49
2023/11/25 02:57:43;;;;;;;7.07;1.63;;;;;;;7.96;100.00;98613.97;5091878;28;20032;-49
2023/11/25 03:02:51;;;;;;;7.80;1.70;;;;;;;7.87;100.00;98620.31;5091691;28;20395;-49
2023/11/25 03:05:16;;;;;;;4.20;1.65;;;;;;;7.83;100.00;98609.44;5090176;28;20571;-49
2023/11/25 03:07:42;;;;;;;7.20;2.10;;;;;;;7.96;100.00;98606.16;5091514;28;20107;-49
2023/11/25 03:10:09;;;;;;;7.25;2.45;;;;;;;7.96;100.00;98606.94;5090158;28;20070;-49
2023/11/25 03:12:35;;;;;;;5.13;2.17;;;;;;;8.17;100.00;98614.00;5091514;28;20020;-49
2023/11/25 03:15:02;;;;;;;7.47;1.80;;;;;;;8.14;100.00;98616.19;5091386;28;20028;-49
2023/11/25 03:17:29;;;;;;;5.53;1.70;;;;;;;8.07;100.00;98610.88;5091292;28;20556;-49
2023/11/25 03:19:54;;;;;;;7.47;1.80;;;;;;;8.00;100.00;98612.63;5091478;28;20102;-49
2023/11/25 03:22:21;;;;;;;8.02;1.63;;;;;;;7.88;100.00;98621.94;5090165;28;20566;-49
2023/11/25 03:24:48;;;;;;;13.00;9.05;;;;;;;7.81;100.00;98611.41;5091048;28;20071;-49
2023/11/25 03:27:15;;;;;;;8.55;3.30;;;;;;;8.10;100.00;98610.50;5091318;28;20028;-49
2023/11/25 03:29:41;;;;;;;16.13;8.63;;;;;;;8.31;100.00;98609.72;5090162;28;20016;-49
2023/11/25 03:32:06;;;;;;;10.20;4.18;;;;;;;8.37;100.00;98616.81;5089930;28;20123;-49
2023/11/25 03:34:33;;;;;;;6.50;5.30;;;;;;;8.28;100.00;98614.50;5089944;28;20028;-49
2023/11/25 03:36:59;;;;;;;6.50;2.10;;;;;;;8.08;100.00;98611.69;5089844;28;20024;-49
2023/11/25 03:39:26;;;;;;;30.10;24.92;;;;;;;7.86;100.00;98614.28;5089874;28;20077;-49
2023/11/25 03:41:52;;;;;;;7.38;3.33;;;;;;;8.13;100.00;98612.75;5090047;28;20034;-49
2023/11/25 03:44:18;;;;;;;9.57;2.20;;;;;;;8.14;100.00;98605.72;5093526;28;20111;-49
2023/11/25 03:46:44;;;;;;;11.07;1.90;;;;;;;8.18;100.00;98605.16;5094797;28;20056;-49
2023/11/25 03:49:10;;;;;;;7.38;3.88;;;;;;;8.49;100.00;98598.00;5076588;28;20028;-50
2023/11/25 03:51:36;;;;;;;7.65;1.63;;;;;;;8.65;100.00;98602.16;5093413;28;20028;-49
2023/11/25 03:54:02;;;;;;;16.20;4.70;;;;;;;8.63;100.00;98614.63;5093279;28;20030;-49
2023/11/25 03:56:27;;;;;;;9.02;1.80;;;;;;;8.71;100.00;98611.84;5094757;28;20028;-49
2023/11/25 03:58:54;;;;;;;13.38;6.93;;;;;;;8.56;100.00;98606.72;5093242;28;20020;-49
2023/11/25 04:01:20;;;;;;;9.18;4.68;;;;;;;8.52;100.00;98619.38;5094420;28;20020;-49
2023/11/25 04:03:45;;;;;;;9.13;2.33;;;;;;;8.39;100.00;98612.19;5094429;28;20099;-49
2023/11/25 04:06:12;;;;;;;10.20;1.63;;;;;;;8.23;100.00;98609.00;5094407;28;20111;-49
2023/11/25 04:08:39;;;;;;;9.48;1.88;;;;;;;8.04;100.00;98611.25;5094300;28;20024;-49
2023/11/25 04:11:06;;;;;;;6.65;1.98;;;;;;;7.92;100.00;98617.97;5094297;28;20028;-49
2023/11/25 04:13:31;;;;;;;14.05;3.90;;;;;;;8.00;100.00;98613.41;5094259;28;20034;-49
2023/11/25 04:15:59;;;;;;;9.27;2.67;;;;;;;8.01;100.00;98622.09;5092892;28;20065;-49
2023/11/25 04:18:26;;;;;;;12.27;2.83;;;;;;;7.93;100.00;98622.19;5094029;28;20020;-49
2023/11/25 04:20:52;;;;;;;10.80;3.05;;;;;;;7.82;100.00;98633.13;5092889;28;20024;-49
2023/11/25 04:23:19;;;;;;;7.22;2.00;;;;;;;7.82;100.00;98635.72;5094101;28;20092;-49
2023/11/25 04:25:44;;;;;;;8.38;3.17;;;;;;;7.52;100.00;98636.56;5093778;28;20052;-49
2023/11/25 04:28:13;;;;;;;10.55;2.33;;;;;;;7.48;100.00;98630.09;5093867;28;20133;-49
2023/11/25 04:30:39;;;;;;;10.20;1.90;;;;;;;7.69;100.00;98634.59;5092585;28;20073;-49
2023/11/25 04:33:09;;;;;;;7.32;1.80;;;;;;;7.55;100.00;98638.84;5093897;28;20016;-49
2023/11/25 04:35:36;;;;;;;9.15;1.90;;;;;;;7.40;100.00;98636.25;5093833;28;20026;-49
2023/11/25 04:38:02;;;;;;;8.77;2.42;;;;;;;7.31;100.00;98636.53;5093725;28;20071;-49
2023/11/25 04:40:28;;;;;;;10.13;2.17;;;;;;;7.23;100.00;98640.03;5093662;28;20023;-49
2023/11/25 04:42:54;;;;;;;9.68;1.95;;;;;;;7.20;100.00;98637.75;5092386;28;20398;-49
2023/11/25 04:45:20;;;;;;;3.90;1.58;;;;;;;7.28;100.00;98642.88;5092322;28;20024;-49
2023/11/25 04:47:48;;;;;;;8.75;1.80;;;;;;;7.16;100.00;98641.72;5093769;28;20028;-49
2023/11/25 04:50:15;;;;;;;10.45;2.20;;;;;;;6.98;100.00;98640.28;5092162;28;20024;-49
2023/11/25 04:52:42;;;;;;;5.20;1.90;;;;;;;6.92;100.00;98642.78;5093184;28;20031;-49
2023/11/25 04:55:08;;;;;;;8.18;2.67;;;;;;;6.83;100.00;98649.06;5093340;28;20115;-49
2023/11/25 04:57:38;;;;;;;13.13;3.17;;;;;;;6.78;100.00;98647.81;5092129;28;20157;-49
2023/11/25 05:00:10;;;;;;;12.48;2.22;;;;;;;6.79;100.00;98638.19;5091982;28;20071;-49
2023/11/25 05:02:37;;;;;;;10.93;2.50;;;;;;;6.79;100.00;98638.97;5093365;28;20020;-48
2023/11/25 05:05:04;;;;;;;9.10;1.67;;;;;;;6.71;100.00;98639.06;5093201;28;20057;-49
2023/11/25 05:07:31;;;;;;;12.68;2.13;;;;;;;6.69;100.00;98640.22;5091977;28;20028;-49
2023/11/25 05:09:57;;;;;;;12.98;2.58;;;;;;;6.83;100.00;98644.66;5091818;28;20031;-49
2023/11/25 05:12:23;;;;;;;8.25;1.80;;;;;;;6.87;100.00;98645.91;5091826;28;20032;-49
2023/11/25 05:14:50;;;;;;;10.13;2.40;;;;;;;6.79;100.00;98664.25;5093051;28;20408;-49
2023/11/25 05:17:17;;;;;;;4.50;1.88;;;;;;;6.81;100.00;98672.72;5092897;28;20020;-49
2023/11/25 05:19:43;;;;;;;6.93;2.30;;;;;;;6.86;100.00;98669.56;5091675;28;20055;-49
2023/11/25 05:22:09;;;;;;;7.13;2.10;;;;;;;6.85;100.00;98673.19;5092926;28;20067;-48
2023/11/25 05:24:35;;;;;;;4.78;2.10;;;;;;;6.80;100.00;98684.13;5091343;28;20136;-49
2023/11/25 05:27:01;;;;;;;8.35;2.50;;;;;;;6.79;100.00;98680.72;5092777;28;20031;-48
2023/11/25 05:29:26;;;;;;;10.15;3.67;;;;;;;6.85;100.00;98679.19;5092782;28;20098;-49
2023/11/25 05:31:52;;;;;;;12.25;2.50;;;;;;;6.78;100.00;98673.06;5091368;28;20107;-48
2023/11/25 05:34:18;;;;;;;10.48;2.20;;;;;;;6.65;100.00;98673.66;5091393;28;20462;-48
2023/11/25 05:36:44;;;;;;;21.30;10.30;;;;;;;6.57;100.00;98671.13;5091219;28;20081;-49
2023/11/25 05:39:13;;;;;;;17.27;7.90;;;;;;;6.55;100.00;98671.28;5092828;28;20086;-49
2023/11/25 05:41:40;;;;;;;11.48;3.83;;;;;;;6.62;100.00;98662.75;5092476;28;20485;-49
2023/11/25 05:44:10;;;;;;;6.38;1.55;;;;;;;6.63;100.00;98670.41;5092548;28;20012;-49
2023/11/25 05:46:36;;;;;;;10.10;2.20;;;;;;;6.60;100.00;98668.16;5092848;28;20024;-49
2023/11/25 05:49:04;;;;;;;9.20;3.47;;;;;;;6.57;100.00;98671.13;5092466;28;20367;-48
2023/11/25 05:51:34;;;;;;;10.40;5.28;;;;;;;6.63;100.00;98667.00;5092647;28;20024;-49
2023/11/25 05:53:59;;;;;;;10.45;2.70;;;;;;;6.59;100.00;98671.75;5092330;28;20028;-49
2023/11/25 05:56:29;;;;;;;9.80;2.40;;;;;;;6.58;100.00;98670.94;5090952;28;20028;-49
2023/11/25 05:58:56;;;;;;;10.10;3.30;;;;;;;6.57;100.00;98669.31;5092331;28;20394;-48
2023/11/25 06:01:22;;;;;;;10.45;3.78;;;;;;;6.48;100.00;98675.59;5092287;28;20059;-49
2023/11/25 06:03:50;;;;;;;9.85;2.33;;;;;;;6.48;100.00;98682.56;5074216;28;20055;-49
2023/11/25 06:06:18;;;;;;;11.48;2.60;;;;;;;6.36;100.00;98680.38;5090179;28;20456;-49
2023/11/25 06:08:45;;;;;;;10.05;2.28;;;;;;;6.20;100.00;98686.50;5092137;28;20024;-49
2023/11/25 06:11:19;;;;;;;8.45;1.67;;;;;;;5.97;100.00;98696.88;5092070;28;20031;-48
2023/11/25 06:13:45;;;;;;;8.30;3.78;;;;;;;5.74;100.00;98694.19;5092075;28;20027;-49
2023/11/25 06:16:11;;;;;;;17.23;3.17;;;;;;;5.60;100.00;98700.91;5090617;28;20031;-49
2023/11/25 06:18:37;;;;;;;9.32;2.13;;;;;;;5.57;100.00;98706.47;5092028;28;20065;-49
2023/11/25 06:21:04;;;;;;;8.90;2.63;;;;;;;5.73;100.00;98697.75;5090684;28;20039;-49
2023/11/25 06:23:31;;;;;;;6.38;2.10;;;;;;;5.88;100.00;98697.88;5090633;28;20024;-49
2023/11/25 06:25:57;;;;;;;10.65;1.98;;;;;;;6.03;100.00;98700.59;5090374;28;20052;-48
2023/11/25 06:28:24;;;;;;;11.45;6.35;;;;;;;6.33;100.00;98703.38;5090651;28;20032;-49
2023/11/25 06:30:53;;;;;;;6.95;2.75;;;;;;;6.43;100.00;98695.34;5090569;28;20109;-49
2023/11/25 06:33:26;;;;;;;14.63;7.78;;;;;;;6.54;100.00;98695.75;5091904;28;20098;-49
2023/11/25 06:35:56;;;;;;;12.15;6.93;;;;;;;6.62;100.00;98696.66;5091887;28;20040;-49
2023/11/25 06:38:23;;;;;;;8.38;3.03;;;;;;;6.69;100.00;98692.38;5092138;28;20024;-49
2023/11/25 06:40:49;;;;;;;13.32;4.05;;;;;;;6.62;100.00;98696.66;5090541;28;20023;-48
2023/11/25 06:43:15;;;;;;;19.50;7.65;;;;;;;6.64;100.00;98695.53;5091811;28;20028;-48
2023/11/25 06:45:44;;;;;;;8.23;2.80;;;;;;;6.70;100.00;98696.59;5091747;28;20066;-48
2023/11/25 06:48:13;;;;;;;11.93;4.38;;;;;;;6.83;100.00;98699.44;5091739;28;20035;-48
2023/11/25 06:50:38;;;;;;;11.05;7.07;;;;;;;7.03;100.00;98702.38;5090385;28;20518;-48
2023/11/25 06:53:04;;;;;;;9.88;2.70;;;;;;;7.03;100.00;98698.94;5073603;28;20020;-49
2023/11/25 06:55:32;;;;;;;8.55;4.93;;;;;;;6.97;100.00;98708.28;5090356;28;20024;-49
2023/11/25 06:57:58;;;;;;;7.85;2.10;;;;;;;6.99;100.00;98714.13;5091517;28;20541;-49
2023/11/25 07:00:24;;;;;;;10.85;4.35;;;;;;;6.90;100.00;98720.41;5090332;28;20027;-48
2023/11/25 07:02:49;;;;;;;10.68;3.17;;;;;;;6.85;100.00;98722.75;5090256;28;20528;-48
2023/11/25 07:05:15;;;;;;;11.48;5.25;;;;;;;6.91;100.00;98714.22;5091505;28;20020;-48
2023/11/25 07:07:42;;;;;;;15.07;3.20;;;;;;;6.81;99.30;98722.28;5090304;28;20024;-48
2023/11/25 07:10:13;;;;;;;18.60;7.63;;;;;;;6.72;98.38;98731.13;5073392;28;20046;-48
2023/11/25 07:12:40;;;;;;;12.23;3.03;;;;;;;6.76;100.00;98733.25;5091536;28;20397;-48
2023/11/25 07:15:07;;;;;;;12.20;3.15;;;;;;;6.81;99.77;98743.13;5091424;28;20562;-48
2023/11/25 07:17:34;;;;;;;13.75;6.05;;;;;;;6.86;100.00;98740.84;5094352;28;20024;-48
2023/11/25 07:20:00;;;;;;;18.65;10.35;;;;;;;6.85;100.00;98746.22;5095255;28;20562;-48
2023/11/25 07:22:26;;;;;;;10.40;2.80;;;;;;;6.83;100.00;98746.38;5095250;28;20150;-49
2023/11/25 07:24:52;;;;;;;13.05;4.38;;;;;;;6.83;100.00;98742.97;5094956;28;20425;-48
2023/11/25 07:27:18;;;;;;;11.45;5.15;;;;;;;6.95;100.00;98741.56;5095188;28;20027;-48
2023/11/25 07:29:49;;;;;;;10.90;2.30;;;;;;;7.15;100.00;98753.13;5093849;28;20024;-49
2023/11/25 07:32:15;;;;;;;13.13;3.97;;;;;;;7.11;100.00;98751.88;5095055;28;20021;-48
2023/11/25 07:34:41;;;;;;;16.65;12.77;;;;;;;7.09;98.05;98763.47;5076860;28;20070;-48
2023/11/25 07:37:07;;;;;;;6.38;2.22;;;;;;;6.95;93.62;98763.25;5094828;28;20024;-48
2023/11/25 07:39:33;;;;;;;9.23;5.28;;;;;;;6.77;91.78;98770.56;5094949;28;20024;-48
2023/11/25 07:42:01;;;;;;;8.63;3.35;;;;;;;6.66;90.22;98781.38;5094695;28;20020;-48
2023/11/25 07:44:30;;;;;;;11.20;4.25;;;;;;;6.63;92.56;98781.75;5093659;28;20028;-48
2023/11/25 07:46:57;;;;;;;10.77;3.17;;;;;;;6.72;94.28;98778.06;5094706;28;20023;-48
2023/11/25 07:49:23;;;;;;;9.63;4.65;;;;;;;6.76;95.54;98793.22;5093479;28;20031;-48
2023/11/25 07:51:49;;;;;;;14.82;6.45;;;;;;;6.82;95.46;98791.69;5094658;28;20027;-48
2023/11/25 07:54:15;;;;;;;12.82;4.70;;;;;;;6.93;95.86;98790.50;5094580;28;20034;-48
2023/11/25 07:56:41;;;;;;;14.90;7.57;;;;;;;6.86;95.04;98797.38;5094575;28;20055;-48
2023/11/25 07:59:07;;;;;;;11.60;2.38;;;;;;;6.79;94.72;98795.47;5094517;28;20047;-48
2023/11/25 08:01:33;;;;;;;8.48;4.60;;;;;;;6.67;95.13;98793.44;5093183;28;20039;-48
2023/11/25 08:04:00;;;;;;;23.08;14.75;;;;;;;6.67;96.81;98798.66;5093175;28;20488;-48
2023/11/25 08:06:26;;;;;;;28.92;18.23;;;;;;;6.73;96.32;98798.78;5093073;28;20020;-49
2023/11/25 08:08:55;;;;;;;9.27;4.05;;;;;;;6.85;96.96;98801.81;5093313;28;20031;-49
2023/11/25 08:11:26;;;;;;;46.90;35.63;;;;;;;6.88;96.91;98805.84;5094272;28;20099;-48
2023/11/25 08:13:52;;;;;;;15.02;9.77;;;;;;;6.90;97.66;98812.53;5092945;28;20055;-49
2023/11/25 08:16:18;;;;;;;23.63;12.85;;;;;;;7.02;97.69;98809.50;5092882;28;20430;-48
2023/11/25 08:18:47;;;;;;;29.92;21.42;;;;;;;7.22;97.72;98815.88;5092861;28;20036;-49
2023/11/25 08:21:14;;;;;;;5.55;2.90;;;;;;;7.32;97.07;98816.44;5092800;28;20024;-48
2023/11/25 08:23:41;;;;;;;12.00;5.55;;;;;;;7.31;97.11;98814.84;5092777;28;20020;-49
2023/11/25 08:26:20;;;;;;;25.02;12.23;;;;;;;7.32;97.36;98813.84;5093676;28;20052;-48
2023/11/25 08:28:46;;;;;;;40.13;31.05;;;;;;;7.42;97.95;98824.03;5092033;28;20016;-49
2023/11/25 08:31:12;;;;;;;10.57;3.95;;;;;;;7.47;95.88;98824.34;5075706;28;20028;-48
2023/11/25 08:33:40;;;;;;;22.45;14.07;;;;;;;7.48;96.15;98825.13;5093896;28;20019;-49
2023/11/25 08:36:08;;;;;;;12.98;6.55;;;;;;;7.52;96.12;98823.78;5093808;28;20196;-49
2023/11/25 08:38:34;;;;;;;14.50;9.82;;;;;;;7.56;94.92;98828.47;5093957;28;20012;-48
2023/11/25 08:41:00;;;;;;;13.27;6.25;;;;;;;7.58;95.05;98823.88;5093675;28;20050;-49
2023/11/25 08:43:28;;;;;;;28.70;17.45;;;;;;;7.64;95.13;98829.41;5092388;28;20496;-49
2023/11/25 08:45:54;;;;;;;53.47;36.53;;;;;;;7.57;94.34;98831.94;5093590;28;20020;-49
2023/11/25 08:48:20;;;;;;;12.90;6.10;;;;;;;7.51;94.97;98832.63;5093601;28;20462;-48
2023/11/25 08:50:46;;;;;;;61.72;41.90;;;;;;;7.51;94.77;98841.28;5092244;28;20024;-48
2023/11/25 08:53:14;;;;;;;41.33;29.40;;;;;;;7.38;92.78;98844.50;5093486;28;20085;-49
2023/11/25 08:55:39;;;;;;;16.88;8.80;;;;;;;7.42;92.05;98837.09;5093433;28;20034;-48
2023/11/25 08:58:07;;;;;;;9.20;5.07;;;;;;;7.30;90.32;98844.53;5092148;28;20020;-49
2023/11/25 09:00:33;;;;;;;11.80;4.80;;;;;;;7.29;91.55;98842.13;5093624;28;20048;-48
2023/11/25 09:03:00;;;;;;;14.48;6.32;;;;;;;7.20;92.24;98843.94;5093528;28;20461;-48
2023/11/25 09:05:28;;;;;;;168.32;150.40;;;;;;;7.08;91.53;98855.78;5093253;28;20024;-48
2023/11/25 09:07:59;;;;;;;18.90;9.60;;;;;;;7.05;93.17;98856.16;5093172;28;20077;-49
2023/11/25 09:10:26;;;;;;;353.23;314.50;;;;;;;7.26;94.39;98858.91;5091919;28;20063;-49
2023/11/25 09:12:53;;;;;;;64.60;46.03;;;;;;;7.45;94.41;98859.44;5093136;28;20044;-49
2023/11/25 09:15:19;;;;;;;12.68;5.68;;;;;;;7.57;94.00;98858.03;5093107;28;20016;-48
2023/11/25 09:17:45;;;;;;;23.95;15.32;;;;;;;7.55;93.20;98868.66;5091633;28;20030;-48
2023/11/25 09:20:16;;;;;;;174.60;155.45;;;;;;;7.45;92.29;98867.28;5092945;28;20032;-49
2023/11/25 09:22:42;;;;;;;43.40;25.88;;;;;;;7.70;91.58;98870.50;5092893;28;20016;-49
2023/11/25 09:25:12;;;;;;;78.07;69.57;;;;;;;7.82;91.69;98871.69;5091347;28;20051;-49
2023/11/25 09:27:41;;;;;;;169.20;151.18;;;;;;;8.05;90.28;98878.63;5092874;28;20398;-49
2023/11/25 09:30:11;;;;;;;53.58;44.28;;;;;;;8.28;90.69;98871.53;5092688;28;20027;-49
2023/11/25 09:32:39;;;;;;;19.92;9.85;;;;;;;8.51;89.38;98884.56;5093023;28;20500;-49
2023/11/25 09:35:06;;;;;;;23.55;14.02;;;;;;;8.51;86.16;98881.09;5092662;28;20028;-49
2023/11/25 09:37:33;;;;;;;390.40;282.25;;;;;;;8.76;86.65;98876.41;5092597;28;20362;-48
2023/11/25 09:39:59;;;;;;;215.88;170.63;;;;;;;9.33;85.80;98878.19;5091674;28;20027;-49
2023/11/25 09:42:25;;;;;;;38.33;28.58;;;;;;;10.88;87.54;98875.53;5092562;28;20028;-49
2023/11/25 09:44:51;;;;;;;84.50;73.63;;;;;;;12.18;82.19;98860.25;5091222;28;20022;-49
2023/11/25 09:47:17;;;;;;;32.72;26.85;;;;;;;13.65;79.60;98868.22;5091099;28;20405;-47
2023/11/25 09:49:43;;;;;;;111.05;85.13;;;;;;;15.02;78.67;98858.44;5092516;28;20013;-47
2023/11/25 09:52:14;;;;;;;28.60;19.95;;;;;;;15.27;69.35;98848.50;5092431;28;20024;-47
2023/11/25 09:54:39;;;;;;;334.25;270.67;;;;;;;15.82;65.12;98852.75;5092421;28;20020;-47
2023/11/25 09:57:06;;;;;;;557.70;433.58;;;;;;;15.75;64.17;98863.44;5090903;28;20035;-47
2023/11/25 09:59:32;;;;;;;587.08;469.30;;;;;;;14.56;64.17;98866.72;5092230;28;20027;-47
2023/11/25 10:01:58;;;;;;;259.20;161.93;;;;;;;14.35;67.05;98865.31;5092236;28;20064;-48
2023/11/25 10:04:29;;;;;;;69.72;37.85;;;;;;;14.88;64.97;98861.25;5092223;28;20020;-47
2023/11/25 10:06:54;;;;;;;58.92;40.08;;;;;;;15.00;61.27;98865.78;5091127;28;20039;-47
2023/11/25 10:09:21;;;;;;;32.35;20.98;;;;;;;15.30;60.70;98853.34;5090828;28;20032;-47
2023/11/25 10:11:47;;;;;;;47.40;37.55;;;;;;;14.91;58.33;98852.88;5092108;28;20024;-47
2023/11/25 10:14:14;;;;;;;37.08;28.80;;;;;;;15.70;62.17;98858.00;5090788;28;20021;-47
2023/11/25 10:16:44;;;;;;;11.20;3.78;;;;;;;15.64;56.24;98840.38;5092183;28;20027;-46
2023/11/25 10:19:23;;;;;;;8.30;4.47;;;;;;;15.39;53.79;98848.50;5092272;28;20444;-47
2023/11/25 10:21:51;;;;;;;7.47;2.88;;;;;;;14.26;53.37;98855.25;5091876;28;20027;-47
2023/11/25 10:24:20;;;;;;;9.55;2.88;;;;;;;13.28;54.37;98848.78;5091744;28;20040;-47
2023/11/25 10:26:49;;;;;;;9.68;3.30;;;;;;;13.13;57.18;98863.09;5091969;28;20064;-47
2023/11/25 10:29:18;;;;;;;17.33;7.60;;;;;;;13.53;59.31;98856.75;5091828;28;20026;-47
2023/11/25 10:31:45;;;;;;;1154.93;865.03;;;;;;;13.01;58.95;98853.44;5091833;28;20077;-47
2023/11/25 10:34:11;;;;;;;551.80;419.60;;;;;;;12.70;58.21;98839.22;5091776;28;20405;-47
2023/11/25 10:36:40;;;;;;;88.80;51.40;;;;;;;12.31;58.63;98849.69;5091686;28;20020;-47
2023/11/25 10:39:08;;;;;;;62.50;44.20;;;;;;;11.51;62.86;98860.31;5091858;28;20058;-47
2023/11/25 10:41:39;;;;;;;635.25;567.30;;;;;;;11.84;67.27;98859.47;5091999;28;20043;-47
2023/11/25 10:44:07;;;;;;;197.35;149.63;;;;;;;12.96;64.99;98844.34;5091753;28;20036;-47
2023/11/25 10:46:38;;;;;;;30.52;18.05;;;;;;;13.64;62.12;98840.22;5090418;28;20461;-47
2023/11/25 10:49:06;;;;;;;43.35;26.98;;;;;;;14.76;62.55;98837.41;5091738;28;20024;-47
2023/11/25 10:51:33;;;;;;;20.38;9.35;;;;;;;15.78;55.97;98831.22;5091786;28;20498;-47
2023/11/25 10:53:59;;;;;;;11.55;4.78;;;;;;;16.58;56.69;98834.19;5094464;28;20028;-47
2023/11/25 10:56:27;;;;;;;13.10;4.20;;;;;;;17.31;57.94;98837.91;5096015;28;20020;-47
2023/11/25 10:58:54;;;;;;;12.93;3.88;;;;;;;16.47;53.06;98838.47;5095734;28;20024;-47
2023/11/25 11:01:21;;;;;;;8.38;2.90;;;;;;;15.13;57.00;98852.34;5095706;28;20024;-47
2023/11/25 11:03:55;;;;;;;11.70;3.38;;;;;;;14.86;55.28;98849.28;5095626;28;20233;-47
2023/11/25 11:06:27;;;;;;;12.32;3.63;;;;;;;14.21;55.21;98848.00;5095661;28;20060;-47
2023/11/25 11:08:54;;;;;;;11.43;2.03;;;;;;;13.37;55.45;98847.56;5095826;28;20028;-47
2023/11/25 11:11:36;;;;;;;11.07;2.40;;;;;;;12.64;51.77;98843.50;5095479;28;20032;-46
2023/11/25 11:14:14;;;;;;;10.18;2.15;;;;;;;11.95;54.61;98847.53;5094149;28;20496;-47
2023/11/25 11:16:39;;;;;;;8.27;2.00;;;;;;;11.55;57.31;98850.16;5094046;28;20060;-47
2023/11/25 11:19:07;;;;;;;7.10;2.45;;;;;;;11.23;56.72;98849.97;5094080;28;20066;-46
2023/11/25 11:21:47;;;;;;;12.05;2.28;;;;;;;10.79;58.45;98856.53;5093994;28;20036;-46
2023/11/25 11:24:21;;;;;;;8.10;2.00;;;;;;;10.35;58.80;98848.09;5095134;28;20048;-47
2023/11/25 11:27:11;;;;;;;6.85;2.40;;;;;;;10.07;59.64;98855.16;5095246;28;20051;-47
2023/11/25 11:29:42;;;;;;;10.88;2.38;;;;;;;10.06;59.00;98857.00;5095297;28;20056;-47